createdAt,value
2017-07-17T00:01:36.342Z,19.90
2017-07-17T00:04:10.083Z,19.90
2017-07-17T00:06:45.365Z,19.90
2017-07-17T00:09:19.421Z,19.90
2017-07-17T00:11:53.899Z,19.90
2017-07-17T00:14:28.649Z,19.90
2017-07-17T00:17:02.615Z,19.80
2017-07-17T00:19:37.074Z,19.80
2017-07-17T00:22:11.023Z,19.70
2017-07-17T00:24:44.699Z,19.70
2017-07-17T00:27:19.222Z,19.70
2017-07-17T00:29:52.929Z,19.70
2017-07-17T00:32:26.558Z,19.70
2017-07-17T00:35:01.232Z,19.60
2017-07-17T00:37:35.139Z,19.50
2017-07-17T00:40:08.977Z,19.50
2017-07-17T00:42:43.461Z,19.50
2017-07-17T00:45:17.589Z,19.50
2017-07-17T00:47:51.174Z,19.50
2017-07-17T00:50:25.630Z,19.60
2017-07-17T00:52:59.635Z,19.50
2017-07-17T00:55:33.338Z,19.60
2017-07-17T00:58:07.833Z,19.50
2017-07-17T01:00:41.743Z,19.50
2017-07-17T01:03:15.466Z,19.50
2017-07-17T01:05:49.183Z,19.50
2017-07-17T01:08:22.783Z,19.40
2017-07-17T01:10:56.689Z,19.40
2017-07-17T01:13:31.262Z,19.40
2017-07-17T01:16:05.822Z,19.30
2017-07-17T01:18:39.647Z,19.30
2017-07-17T01:21:13.425Z,19.30
2017-07-17T01:23:47.841Z,19.20
2017-07-17T01:26:23.787Z,19.20
2017-07-17T01:28:57.522Z,19.20
2017-07-17T01:31:31.299Z,19.10
2017-07-17T01:34:05.626Z,19.10
2017-07-17T01:36:40.302Z,19.10
2017-07-17T01:39:14.166Z,19.00
2017-07-17T01:41:48.621Z,19.10
2017-07-17T01:44:23.189Z,19.00
2017-07-17T01:46:57.287Z,19.00
2017-07-17T01:49:30.902Z,19.10
2017-07-17T01:52:05.611Z,19.10
2017-07-17T01:54:39.310Z,19.00
2017-07-17T01:57:13.785Z,19.10
2017-07-17T01:59:47.843Z,19.00
2017-07-17T02:02:21.657Z,19.00
2017-07-17T02:04:55.253Z,19.10
2017-07-17T02:07:29.098Z,19.00
2017-07-17T02:10:02.839Z,19.00
2017-07-17T02:12:36.660Z,19.00
2017-07-17T02:15:11.131Z,19.10
2017-07-17T02:17:45.886Z,19.10
2017-07-17T02:20:20.505Z,19.10
2017-07-17T02:22:55.249Z,19.10
2017-07-17T02:25:29.209Z,19.00
2017-07-17T02:28:03.675Z,19.00
2017-07-17T02:30:37.581Z,18.90
2017-07-17T02:33:11.254Z,18.90
2017-07-17T02:35:44.994Z,18.90
2017-07-17T02:38:19.512Z,18.90
2017-07-17T02:40:53.398Z,18.80
2017-07-17T02:43:27.102Z,18.90
2017-07-17T02:46:01.491Z,18.90
2017-07-17T02:48:35.419Z,18.90
2017-07-17T02:51:10.851Z,18.90
2017-07-17T02:53:44.749Z,18.80
2017-07-17T02:56:19.287Z,18.90
2017-07-17T02:58:53.286Z,18.90
2017-07-17T03:01:27.870Z,18.90
2017-07-17T03:04:01.567Z,18.90
2017-07-17T03:06:36.146Z,18.80
2017-07-17T03:09:10.128Z,18.70
2017-07-17T03:11:43.761Z,18.80
2017-07-17T03:14:18.435Z,18.80
2017-07-17T03:16:52.759Z,18.80
2017-07-17T03:19:27.238Z,18.80
2017-07-17T03:22:01.179Z,18.70
2017-07-17T03:24:35.805Z,18.90
2017-07-17T03:27:09.738Z,18.90
2017-07-17T03:29:43.426Z,18.90
2017-07-17T03:32:17.214Z,18.90
2017-07-17T03:34:50.951Z,18.90
2017-07-17T03:37:25.464Z,18.90
2017-07-17T03:39:59.152Z,18.90
2017-07-17T03:42:32.802Z,19.00
2017-07-17T03:45:07.354Z,19.00
2017-07-17T03:47:41.748Z,19.00
2017-07-17T03:50:15.780Z,18.90
2017-07-17T03:52:50.280Z,19.00
2017-07-17T03:55:24.178Z,18.90
2017-07-17T03:57:57.799Z,19.10
2017-07-17T04:00:32.378Z,19.00
2017-07-17T04:03:06.843Z,19.10
2017-07-17T04:05:40.811Z,19.00
2017-07-17T04:08:15.375Z,19.00
2017-07-17T04:10:49.373Z,19.00
2017-07-17T04:13:23.902Z,19.00
2017-07-17T04:15:57.742Z,19.00
2017-07-17T04:18:32.233Z,19.00
2017-07-17T04:21:06.891Z,19.00
2017-07-17T04:23:40.658Z,19.00
2017-07-17T04:26:15.126Z,19.10
2017-07-17T04:28:49.033Z,19.00
2017-07-17T04:31:23.674Z,19.10
2017-07-17T04:33:57.570Z,19.00
2017-07-17T04:36:32.910Z,19.10
2017-07-17T04:39:06.830Z,19.10
2017-07-17T04:41:40.675Z,19.10
2017-07-17T04:44:14.254Z,19.20
2017-07-17T04:46:48.850Z,19.10
2017-07-17T04:49:22.663Z,19.00
2017-07-17T04:51:58.138Z,19.10
2017-07-17T04:54:31.870Z,19.00
2017-07-17T04:57:06.479Z,19.10
2017-07-17T04:59:40.078Z,19.10
2017-07-17T05:02:13.715Z,19.10
2017-07-17T05:04:48.125Z,19.10
2017-07-17T05:07:22.861Z,19.20
2017-07-17T05:09:56.770Z,19.10
2017-07-17T05:12:30.506Z,19.20
2017-07-17T05:15:05.038Z,19.30
2017-07-17T05:17:38.766Z,19.40
2017-07-17T05:20:13.250Z,19.40
2017-07-17T05:22:46.854Z,19.40
2017-07-17T05:25:22.146Z,19.40
2017-07-17T05:27:56.153Z,19.40
2017-07-17T05:30:30.690Z,19.60
2017-07-17T05:33:04.691Z,19.50
2017-07-17T05:35:39.150Z,19.60
2017-07-17T05:38:14.965Z,19.60
2017-07-17T05:40:48.677Z,19.60
2017-07-17T05:43:22.326Z,19.70
2017-07-17T05:45:55.903Z,19.60
2017-07-17T05:48:30.466Z,19.70
2017-07-17T05:51:04.183Z,19.80
2017-07-17T05:53:37.882Z,19.80
2017-07-17T05:56:11.480Z,19.90
2017-07-17T05:58:46.091Z,19.90
2017-07-17T06:01:20.920Z,20.00
2017-07-17T06:03:55.289Z,20.10
2017-07-17T06:06:28.957Z,20.20
2017-07-17T06:09:02.617Z,20.30
2017-07-17T06:11:36.326Z,20.40
2017-07-17T06:14:10.198Z,20.40
2017-07-17T06:16:44.623Z,20.30
2017-07-17T06:19:18.627Z,20.30
2017-07-17T06:21:53.884Z,20.40
2017-07-17T06:24:27.745Z,20.30
2017-07-17T06:27:02.241Z,20.40
2017-07-17T06:29:36.049Z,20.40
2017-07-17T06:32:09.741Z,20.50
2017-07-17T06:34:44.167Z,20.50
2017-07-17T06:37:18.081Z,20.50
2017-07-17T06:39:51.775Z,20.50
2017-07-17T06:42:26.285Z,20.50
2017-07-17T06:44:59.936Z,20.60
2017-07-17T06:47:33.660Z,20.50
2017-07-17T06:50:08.238Z,20.40
2017-07-17T06:52:41.901Z,20.70
2017-07-17T06:55:15.579Z,20.80
2017-07-17T06:57:49.203Z,20.90
2017-07-17T07:00:22.907Z,21.00
2017-07-17T07:02:56.606Z,21.00
2017-07-17T07:05:30.302Z,21.10
2017-07-17T07:08:04.728Z,21.10
2017-07-17T07:10:38.581Z,21.00
2017-07-17T07:13:13.137Z,21.10
2017-07-17T07:15:47.741Z,21.10
2017-07-17T07:18:22.529Z,21.10
2017-07-17T07:20:57.274Z,21.10
2017-07-17T07:23:30.936Z,21.10
2017-07-17T07:26:05.551Z,21.30
2017-07-17T07:28:40.905Z,21.30
2017-07-17T07:31:15.005Z,21.30
2017-07-17T07:33:49.445Z,21.30
2017-07-17T07:36:23.330Z,21.30
2017-07-17T07:38:57.021Z,21.40
2017-07-17T07:41:31.565Z,21.50
2017-07-17T07:44:06.017Z,21.40
2017-07-17T07:46:40.749Z,21.40
2017-07-17T07:49:14.744Z,21.30
2017-07-17T07:51:49.322Z,21.40
2017-07-17T07:54:23.093Z,21.50
2017-07-17T07:56:57.693Z,21.60
2017-07-17T07:59:31.446Z,21.60
2017-07-17T08:02:05.945Z,21.60
2017-07-17T08:04:39.965Z,21.50
2017-07-17T08:07:14.574Z,21.60
2017-07-17T08:09:49.293Z,21.70
2017-07-17T08:12:23.383Z,21.60
2017-07-17T08:14:57.133Z,21.70
2017-07-17T08:17:30.883Z,21.80
2017-07-17T08:20:04.509Z,21.80
2017-07-17T08:22:39.374Z,22.00
2017-07-17T08:25:13.125Z,22.00
2017-07-17T08:27:47.730Z,22.10
2017-07-17T08:30:22.194Z,22.20
2017-07-17T08:32:56.298Z,22.20
2017-07-17T08:35:30.857Z,22.30
2017-07-17T08:38:04.474Z,22.30
2017-07-17T08:40:38.885Z,22.40
2017-07-17T08:43:13.514Z,22.50
2017-07-17T08:45:47.422Z,22.40
2017-07-17T08:48:21.203Z,22.50
2017-07-17T08:50:55.748Z,22.60
2017-07-17T08:53:30.190Z,22.90
2017-07-17T08:56:04.145Z,22.80
2017-07-17T08:58:38.731Z,22.90
2017-07-17T09:01:13.185Z,23.10
2017-07-17T09:03:46.821Z,23.20
2017-07-17T09:06:21.231Z,23.40
2017-07-17T09:08:55.322Z,23.30
2017-07-17T09:11:28.957Z,23.50
2017-07-17T09:14:03.475Z,23.30
2017-07-17T09:16:37.358Z,23.30
2017-07-17T09:19:11.916Z,23.30
2017-07-17T09:21:46.122Z,23.20
2017-07-17T09:24:19.889Z,23.10
2017-07-17T09:26:54.314Z,23.20
2017-07-17T09:29:28.382Z,23.10
2017-07-17T09:32:03.572Z,23.40
2017-07-17T09:34:38.242Z,23.40
2017-07-17T09:37:12.821Z,23.40
2017-07-17T09:39:47.582Z,23.40
2017-07-17T09:42:21.498Z,23.40
2017-07-17T09:44:55.339Z,23.50
2017-07-17T09:47:29.826Z,23.70
2017-07-17T09:50:04.371Z,23.80
2017-07-17T09:52:38.208Z,23.70
2017-07-17T09:55:11.943Z,23.80
2017-07-17T09:57:45.674Z,23.70
2017-07-17T10:00:20.166Z,23.70
2017-07-17T10:02:54.131Z,23.70
2017-07-17T10:05:28.710Z,23.90
2017-07-17T10:08:03.303Z,23.90
2017-07-17T10:10:37.379Z,23.90
2017-07-17T10:13:11.013Z,24.00
2017-07-17T10:15:44.665Z,24.10
2017-07-17T10:18:18.366Z,24.10
2017-07-17T10:20:52.223Z,24.20
2017-07-17T10:23:25.900Z,24.30
2017-07-17T10:26:00.315Z,24.50
2017-07-17T10:28:34.153Z,24.40
2017-07-17T10:31:08.717Z,24.70
2017-07-17T10:33:42.441Z,24.60
2017-07-17T10:36:16.106Z,24.70
2017-07-17T10:38:50.515Z,24.80
2017-07-17T10:41:24.421Z,24.70
2017-07-17T10:43:58.053Z,24.90
2017-07-17T10:46:31.910Z,25.00
2017-07-17T10:49:06.442Z,24.80
2017-07-17T10:51:41.298Z,24.80
2017-07-17T10:54:14.982Z,24.80
2017-07-17T10:56:48.790Z,24.60
2017-07-17T10:59:23.337Z,24.70
2017-07-17T11:01:57.226Z,24.60
2017-07-17T11:04:31.786Z,24.60
2017-07-17T11:07:06.388Z,24.80
2017-07-17T11:09:40.307Z,24.70
2017-07-17T11:12:14.753Z,24.90
2017-07-17T11:14:49.431Z,24.90
2017-07-17T11:17:24.167Z,24.90
2017-07-17T11:19:57.989Z,24.80
2017-07-17T11:22:33.654Z,24.90
2017-07-17T11:25:08.114Z,25.00
2017-07-17T11:27:42.017Z,24.90
2017-07-17T11:30:17.274Z,25.00
2017-07-17T11:32:51.334Z,24.90
2017-07-17T11:35:25.707Z,25.10
2017-07-17T11:38:00.354Z,25.10
2017-07-17T11:40:34.196Z,25.10
2017-07-17T11:43:08.698Z,25.30
2017-07-17T11:45:42.422Z,25.20
2017-07-17T11:56:18.428Z,25.40
2017-07-17T11:58:52.093Z,25.40
2017-07-17T12:01:25.808Z,25.40
2017-07-17T12:03:59.590Z,25.50
2017-07-17T12:06:34.119Z,25.60
2017-07-17T12:09:07.922Z,25.80
2017-07-17T12:11:41.792Z,25.90
2017-07-17T12:14:16.235Z,25.90
2017-07-17T12:16:50.743Z,25.80
2017-07-17T12:19:24.445Z,25.80
2017-07-17T12:21:59.069Z,25.80
2017-07-17T12:24:32.699Z,25.90
2017-07-17T12:27:06.333Z,26.00
2017-07-17T12:29:40.947Z,26.20
2017-07-17T12:32:14.886Z,26.10
2017-07-17T12:34:48.549Z,26.20
2017-07-17T12:37:22.165Z,26.30
2017-07-17T12:39:56.684Z,26.40
2017-07-17T12:42:30.489Z,26.40
2017-07-17T12:45:04.301Z,26.40
2017-07-17T12:47:37.872Z,26.40
2017-07-17T12:50:11.770Z,26.60
2017-07-17T12:52:46.295Z,26.80
2017-07-17T12:55:20.233Z,26.80
2017-07-17T12:57:54.693Z,26.70
2017-07-17T13:00:28.453Z,26.70
2017-07-17T13:03:02.196Z,26.80
2017-07-17T13:05:35.986Z,26.80
2017-07-17T13:08:10.374Z,26.80
2017-07-17T13:10:44.442Z,26.80
2017-07-17T13:13:18.218Z,27.00
2017-07-17T13:15:51.847Z,27.00
2017-07-17T13:18:25.522Z,27.10
2017-07-17T13:20:59.424Z,27.20
2017-07-17T13:23:33.921Z,27.20
2017-07-17T13:26:08.757Z,27.30
2017-07-17T13:28:42.524Z,27.30
2017-07-17T13:31:17.088Z,27.50
2017-07-17T13:33:52.409Z,27.90
2017-07-17T13:36:26.397Z,27.80
2017-07-17T13:39:00.065Z,27.90
2017-07-17T13:41:33.904Z,28.10
2017-07-17T13:44:08.430Z,28.10
2017-07-17T13:46:42.181Z,28.30
2017-07-17T13:49:16.573Z,28.50
2017-07-17T13:51:51.312Z,28.40
2017-07-17T13:54:25.929Z,29.30
2017-07-17T13:57:00.677Z,29.40
2017-07-17T13:59:34.598Z,29.30
2017-07-17T14:02:08.386Z,29.50
2017-07-17T14:04:42.000Z,29.50
2017-07-17T14:07:15.773Z,29.70
2017-07-17T14:09:49.414Z,29.90
2017-07-17T14:12:23.306Z,29.40
2017-07-17T14:14:57.814Z,29.20
2017-07-17T14:17:31.786Z,29.10
2017-07-17T14:20:05.422Z,28.70
2017-07-17T14:22:40.212Z,28.40
2017-07-17T14:25:13.937Z,28.20
2017-07-17T14:27:47.886Z,28.10
2017-07-17T14:30:21.543Z,27.60
2017-07-17T14:32:55.208Z,27.30
2017-07-17T14:35:29.785Z,27.60
2017-07-17T14:38:04.751Z,27.70
2017-07-17T14:40:39.340Z,27.80
2017-07-17T14:43:13.342Z,27.80
2017-07-17T14:45:47.785Z,27.30
2017-07-17T14:48:21.741Z,27.20
2017-07-17T14:50:56.113Z,27.40
2017-07-17T14:53:30.838Z,27.40
2017-07-17T14:56:04.531Z,27.20
2017-07-17T14:58:38.328Z,27.40
2017-07-17T15:01:12.137Z,27.70
2017-07-17T15:03:45.863Z,28.20
2017-07-17T15:06:19.662Z,28.40
2017-07-17T15:08:54.237Z,28.50
2017-07-17T15:11:28.020Z,28.50
2017-07-17T15:14:01.710Z,28.10
2017-07-17T15:16:36.235Z,28.30
2017-07-17T15:19:09.963Z,28.40
2017-07-17T15:21:44.549Z,28.40
2017-07-17T15:24:19.504Z,28.30
2017-07-17T15:26:53.340Z,28.60
2017-07-17T15:29:27.990Z,28.90
2017-07-17T15:32:01.733Z,29.00
2017-07-17T15:34:36.124Z,29.10
2017-07-17T15:37:09.832Z,28.90
2017-07-17T15:39:44.408Z,29.70
2017-07-17T15:42:19.110Z,29.80
2017-07-17T15:44:53.034Z,29.80
2017-07-17T15:47:26.758Z,30.20
2017-07-17T15:50:01.257Z,30.30
2017-07-17T15:52:35.080Z,30.20
2017-07-17T15:55:08.861Z,30.10
2017-07-17T15:57:42.485Z,30.00
2017-07-17T16:00:17.085Z,29.40
2017-07-17T16:02:50.928Z,29.30
2017-07-17T16:05:24.670Z,29.30
2017-07-17T16:07:58.449Z,30.10
2017-07-17T16:10:32.949Z,30.30
2017-07-17T16:13:07.427Z,30.70
2017-07-17T16:15:41.318Z,30.60
2017-07-17T16:18:15.762Z,31.40
2017-07-17T16:20:49.941Z,31.40
2017-07-17T16:23:23.646Z,31.80
2017-07-17T16:25:58.137Z,31.90
2017-07-17T16:28:32.620Z,32.30
2017-07-17T16:31:06.509Z,32.20
2017-07-17T16:33:41.053Z,31.60
2017-07-17T16:36:15.050Z,31.50
2017-07-17T16:38:49.598Z,31.70
2017-07-17T16:41:24.165Z,31.00
2017-07-17T16:43:57.957Z,30.90
2017-07-17T16:46:31.642Z,30.60
2017-07-17T16:49:05.252Z,29.90
2017-07-17T16:51:40.863Z,30.30
2017-07-17T16:54:14.589Z,30.20
2017-07-17T16:56:49.170Z,29.90
2017-07-17T16:59:23.744Z,29.90
2017-07-17T17:01:57.489Z,29.90
2017-07-17T17:04:31.850Z,29.60
2017-07-17T17:07:05.753Z,29.50
2017-07-17T17:09:39.550Z,29.20
2017-07-17T17:12:14.091Z,29.20
2017-07-17T17:14:47.819Z,28.90
2017-07-17T17:17:21.581Z,28.50
2017-07-17T17:19:55.381Z,28.20
2017-07-17T17:22:29.189Z,28.30
2017-07-17T17:25:02.885Z,28.30
2017-07-17T17:27:37.509Z,28.00
2017-07-17T17:30:12.159Z,27.70
2017-07-17T17:32:46.049Z,27.70
2017-07-17T17:35:19.748Z,27.70
2017-07-17T17:37:53.653Z,27.60
2017-07-17T17:40:28.194Z,27.60
2017-07-17T17:43:02.184Z,27.50
2017-07-17T17:45:37.641Z,27.40
2017-07-17T17:48:11.629Z,27.30
2017-07-17T17:50:46.996Z,27.20
2017-07-17T17:53:20.980Z,27.20
2017-07-17T17:55:54.754Z,27.00
2017-07-17T17:58:28.451Z,27.00
2017-07-17T18:01:03.769Z,26.90
2017-07-17T18:03:37.865Z,26.80
2017-07-17T18:06:11.494Z,26.80
2017-07-17T18:08:45.314Z,26.90
2017-07-17T18:11:20.629Z,27.00
2017-07-17T18:13:55.296Z,27.00
2017-07-17T18:16:29.392Z,26.90
2017-07-17T18:19:03.258Z,26.90
2017-07-17T18:21:37.880Z,26.90
2017-07-17T18:24:13.451Z,26.60
2017-07-17T18:26:47.156Z,26.60
2017-07-17T18:29:20.966Z,26.60
2017-07-17T18:31:54.665Z,26.50
2017-07-17T18:34:28.633Z,26.50
2017-07-17T18:37:03.225Z,26.40
2017-07-17T18:39:37.849Z,26.30
2017-07-17T18:42:12.744Z,26.30
2017-07-17T18:44:46.736Z,26.20
2017-07-17T18:47:20.381Z,26.20
2017-07-17T18:49:54.162Z,26.10
2017-07-17T18:52:28.580Z,25.90
2017-07-17T18:55:03.444Z,25.90
2017-07-17T18:57:37.129Z,25.90
2017-07-17T19:00:10.877Z,25.80
2017-07-17T19:02:45.380Z,25.60
2017-07-17T19:05:19.204Z,25.40
2017-07-17T19:07:53.601Z,25.10
2017-07-17T19:10:28.345Z,25.10
2017-07-17T19:13:02.153Z,25.00
2017-07-17T19:15:36.877Z,24.90
2017-07-17T19:18:10.631Z,24.80
2017-07-17T19:20:45.202Z,24.60
2017-07-17T19:23:19.677Z,24.40
2017-07-17T19:25:53.740Z,24.30
2017-07-17T19:28:27.330Z,24.30
2017-07-17T19:31:01.963Z,24.10
2017-07-17T19:33:36.640Z,24.00
2017-07-17T19:36:10.750Z,24.00
2017-07-17T19:38:44.508Z,23.90
2017-07-17T19:41:18.292Z,23.80
2017-07-17T19:43:52.049Z,23.70
2017-07-17T19:46:26.658Z,23.60
2017-07-17T19:49:00.659Z,23.50
2017-07-17T19:51:34.464Z,23.60
2017-07-17T19:54:09.511Z,23.50
2017-07-17T19:56:43.693Z,23.50
2017-07-17T19:59:17.429Z,23.50
2017-07-17T20:01:51.109Z,23.40
2017-07-17T20:04:25.563Z,23.40
2017-07-17T20:06:59.184Z,23.30
2017-07-17T20:09:32.792Z,23.30
2017-07-17T20:12:06.673Z,23.30
2017-07-17T20:14:42.049Z,23.20
2017-07-17T20:17:15.937Z,23.20
2017-07-17T20:19:50.465Z,23.20
2017-07-17T20:22:25.213Z,23.20
2017-07-17T20:24:58.930Z,23.20
2017-07-17T20:27:32.644Z,23.10
2017-07-17T20:30:06.992Z,23.00
2017-07-17T20:32:41.871Z,23.00
2017-07-17T20:35:15.808Z,22.90
2017-07-17T20:37:50.358Z,22.90
2017-07-17T20:40:24.072Z,22.90
2017-07-17T20:42:57.781Z,22.90
2017-07-17T20:45:31.453Z,22.80
2017-07-17T20:48:05.347Z,22.80
2017-07-17T20:50:40.522Z,22.70
2017-07-17T20:53:14.723Z,22.70
2017-07-17T20:55:48.328Z,22.70
2017-07-17T20:58:22.110Z,22.70
2017-07-17T21:00:55.844Z,22.60
2017-07-17T21:03:29.633Z,22.60
2017-07-17T21:06:04.157Z,22.50
2017-07-17T21:08:38.193Z,22.40
2017-07-17T21:11:12.708Z,22.40
2017-07-17T21:13:47.376Z,22.30
2017-07-17T21:16:21.239Z,22.30
2017-07-17T21:18:55.933Z,22.30
2017-07-17T21:21:30.689Z,22.20
2017-07-17T21:24:05.474Z,22.20
2017-07-17T21:26:39.448Z,22.10
2017-07-17T21:29:13.910Z,22.20
2017-07-17T21:31:48.668Z,22.20
2017-07-17T21:34:23.470Z,22.10
2017-07-17T21:36:57.312Z,22.10
2017-07-17T21:39:31.084Z,22.10
2017-07-17T21:42:04.868Z,22.10
2017-07-17T21:44:39.811Z,22.00
2017-07-17T21:47:13.454Z,21.90
2017-07-17T21:49:47.913Z,21.90
2017-07-17T21:52:21.838Z,21.90
2017-07-17T21:54:56.381Z,21.90
2017-07-17T21:57:30.191Z,21.80
2017-07-17T22:00:04.806Z,21.80
2017-07-17T22:02:38.657Z,21.80
2017-07-17T22:05:12.266Z,21.70
2017-07-17T22:07:46.102Z,21.80
2017-07-17T22:10:21.637Z,21.70
2017-07-17T22:12:55.656Z,21.60
2017-07-17T22:15:30.357Z,21.60
2017-07-17T22:18:04.230Z,21.60
2017-07-17T22:20:37.952Z,21.70
2017-07-17T22:23:11.577Z,21.70
2017-07-17T22:25:47.530Z,21.50
2017-07-17T22:28:21.362Z,21.50
2017-07-17T22:30:55.173Z,21.50
2017-07-17T22:33:29.561Z,21.50
2017-07-17T22:36:03.542Z,21.40
2017-07-17T22:38:37.989Z,21.40
2017-07-17T22:41:12.025Z,21.40
2017-07-17T22:43:46.517Z,21.30
2017-07-17T22:46:20.713Z,21.30
2017-07-17T22:48:55.249Z,21.20
2017-07-17T22:51:29.324Z,21.10
2017-07-17T22:54:03.841Z,21.20
2017-07-17T22:56:37.606Z,21.10
2017-07-17T22:59:11.392Z,21.10
2017-07-17T23:01:45.097Z,21.00
2017-07-17T23:04:18.807Z,21.00
2017-07-17T23:06:54.180Z,21.00
2017-07-17T23:09:28.032Z,20.90
2017-07-17T23:12:02.690Z,20.90
2017-07-17T23:14:37.216Z,20.80
2017-07-17T23:17:12.040Z,20.80
2017-07-17T23:19:45.921Z,20.80
2017-07-17T23:22:21.317Z,20.80
2017-07-17T23:24:55.004Z,20.80
2017-07-17T23:27:28.889Z,20.70
2017-07-17T23:30:02.613Z,20.70
2017-07-17T23:32:37.984Z,20.60
2017-07-17T23:35:12.761Z,20.60
2017-07-17T23:37:46.736Z,20.50
2017-07-17T23:40:21.225Z,20.50
2017-07-17T23:42:56.068Z,20.50
2017-07-17T23:45:29.932Z,20.50
2017-07-17T23:48:03.854Z,20.50
2017-07-17T23:50:37.585Z,20.50
2017-07-17T23:53:12.393Z,20.50
2017-07-17T23:55:46.045Z,20.50
2017-07-17T23:58:20.563Z,20.40
